Time;durP1;ratioP1;P1;durP2;ratioP2;P2;SDS_P1;SDS_P2;PMS_P1;PMS_P2;Temp;Humidity;BMP_temperature;BMP_pressure;BME280_temperature;BME280_humidity;BME280_pressure;Samples;Min_cycle;Max_cycle;Signal;HPM_P1;HPM_P2
2021/03/21 00:00:13;;;;;;;5.60;4.40;;;3.00;90.00;;;;;;5131739;28;20212;-82
2021/03/21 00:02:39;;;;;;;5.78;4.60;;;3.00;90.20;;;;;;5131596;28;20204;-83
2021/03/21 00:05:07;;;;;;;6.15;4.10;;;3.00;89.60;;;;;;5107481;28;20692;-84
2021/03/21 00:07:33;;;;;;;7.53;4.65;;;3.00;89.20;;;;;;5094620;28;20284;-83
2021/03/21 00:09:59;;;;;;;5.75;4.30;;;3.00;90.00;;;;;;5098873;28;20309;-83
2021/03/21 00:12:27;;;;;;;6.47;4.10;;;3.00;90.20;;;;;;5115160;28;20291;-84
2021/03/21 00:14:53;;;;;;;6.60;4.00;;;3.00;90.80;;;;;;5115212;28;20311;-84
2021/03/21 00:17:19;;;;;;;4.65;4.15;;;3.00;90.70;;;;;;5114480;28;20228;-84
2021/03/21 00:19:46;;;;;;;5.10;4.07;;;3.00;90.10;;;;;;5124414;28;20247;-84
2021/03/21 00:22:12;;;;;;;6.93;4.32;;;3.00;90.80;;;;;;5104046;28;20246;-83
2021/03/21 00:24:39;;;;;;;5.15;4.45;;;3.00;91.00;;;;;;5094642;28;20239;-84
2021/03/21 00:27:06;;;;;;;5.43;3.83;;;3.10;90.90;;;;;;5094627;28;20249;-84
2021/03/21 00:29:33;;;;;;;6.60;4.55;;;3.10;90.60;;;;;;5094502;28;20232;-84
2021/03/21 00:31:59;;;;;;;4.40;4.00;;;3.50;90.90;;;;;;5093408;28;20611;-83
2021/03/21 00:34:26;;;;;;;5.82;4.13;;;3.00;90.90;;;;;;5094570;28;20614;-83
2021/03/21 00:36:52;;;;;;;5.22;3.80;;;3.00;90.40;;;;;;5093033;28;20236;-85
2021/03/21 00:39:19;;;;;;;6.78;5.18;;;3.10;90.30;;;;;;5094040;28;20715;-84
2021/03/21 00:41:45;;;;;;;4.75;3.92;;;3.10;90.10;;;;;;5094105;28;20292;-84
2021/03/21 00:44:11;;;;;;;7.00;4.53;;;3.00;90.30;;;;;;5093635;28;20292;-84
2021/03/21 00:46:39;;;;;;;6.03;5.20;;;3.10;90.70;;;;;;5093893;28;20643;-83
2021/03/21 00:49:06;;;;;;;5.05;4.55;;;3.00;90.50;;;;;;5093810;28;20656;-85
2021/03/21 00:51:33;;;;;;;6.47;5.32;;;3.00;90.10;;;;;;5091740;28;20244;-85
2021/03/21 00:53:59;;;;;;;5.85;4.30;;;3.00;90.60;;;;;;5093924;28;20271;-85
2021/03/21 00:56:30;;;;;;;5.72;3.72;;;3.50;90.70;;;;;;5093825;28;20264;-86
2021/03/21 00:58:58;;;;;;;3.95;3.60;;;3.40;91.00;;;;;;5093570;28;20208;-86
2021/03/21 01:01:25;;;;;;;6.72;4.40;;;3.10;90.40;;;;;;5093449;28;20205;-86
2021/03/21 01:03:53;;;;;;;7.10;4.10;;;3.10;90.30;;;;;;5092625;28;20287;-85
2021/03/21 01:06:20;;;;;;;3.78;3.42;;;3.10;90.50;;;;;;5091825;28;20201;-84
2021/03/21 01:08:51;;;;;;;5.35;3.15;;;3.10;90.50;;;;;;5093444;28;20295;-85
2021/03/21 01:11:23;;;;;;;3.58;3.25;;;3.10;90.30;;;;;;5093416;28;20288;-86
2021/03/21 01:13:50;;;;;;;4.78;3.53;;;3.20;90.40;;;;;;5093327;28;20739;-83
2021/03/21 01:16:18;;;;;;;5.82;3.83;;;3.10;89.80;;;;;;5093077;28;20238;-84
2021/03/21 01:18:45;;;;;;;4.47;3.50;;;3.20;89.80;;;;;;5093363;28;20236;-85
2021/03/21 01:21:12;;;;;;;4.38;3.20;;;3.10;90.80;;;;;;5090765;28;20240;-83
2021/03/21 01:23:39;;;;;;;3.85;3.20;;;3.10;90.70;;;;;;5093057;28;20205;-84
2021/03/21 01:26:06;;;;;;;4.82;3.83;;;3.30;90.20;;;;;;5100077;28;20239;-85
2021/03/21 01:28:35;;;;;;;4.25;3.60;;;3.10;90.50;;;;;;5113321;28;20303;-84
2021/03/21 01:31:05;;;;;;;4.88;4.05;;;3.10;90.80;;;;;;5113416;28;20200;-84
2021/03/21 01:33:33;;;;;;;5.85;3.17;;;3.10;90.60;;;;;;5112379;28;20294;-84
2021/03/21 01:36:03;;;;;;;3.92;3.63;;;3.20;91.00;;;;;;5112011;28;20267;-84
2021/03/21 01:38:30;;;;;;;5.60;3.47;;;3.10;90.60;;;;;;5112498;28;20203;-84
2021/03/21 01:40:59;;;;;;;4.10;3.50;;;3.10;90.40;;;;;;5112763;28;20243;-84
2021/03/21 01:43:30;;;;;;;6.80;4.90;;;3.10;90.60;;;;;;5113061;28;20200;-84
2021/03/21 01:45:58;;;;;;;7.18;4.57;;;3.10;91.20;;;;;;5112523;28;20641;-84
2021/03/21 01:48:35;;;;;;;3.90;3.60;;;3.10;90.80;;;;;;5113168;28;20287;-84
2021/03/21 01:51:05;;;;;;;6.50;3.00;;;3.10;90.70;;;;;;5111849;28;20239;-85
2021/03/21 01:53:36;;;;;;;4.53;3.00;;;3.10;91.00;;;;;;5113334;28;20694;-84
2021/03/21 01:56:03;;;;;;;4.50;3.60;;;3.10;90.50;;;;;;5112408;28;20224;-84
2021/03/21 01:58:32;;;;;;;4.65;3.63;;;3.10;90.40;;;;;;5113258;28;20291;-84
2021/03/21 02:01:01;;;;;;;5.63;2.92;;;3.20;91.00;;;;;;5112456;28;20238;-84
2021/03/21 02:03:28;;;;;;;4.00;3.28;;;3.10;90.80;;;;;;5113289;28;20207;-84
2021/03/21 02:06:07;;;;;;;5.18;3.80;;;3.10;90.60;;;;;;5111132;28;20220;-84
2021/03/21 02:08:44;;;;;;;3.72;3.42;;;3.10;90.70;;;;;;5113256;28;20287;-85
2021/03/21 02:11:18;;;;;;;8.00;4.20;;;3.10;91.00;;;;;;5112202;28;20235;-85
2021/03/21 02:13:54;;;;;;;4.75;4.30;;;3.10;91.30;;;;;;5113433;28;20219;-84
2021/03/21 02:16:25;;;;;;;3.70;3.40;;;3.10;90.90;;;;;;5112550;28;20231;-86
2021/03/21 02:18:58;;;;;;;6.60;3.90;;;3.10;91.50;;;;;;5112361;28;20255;-85
2021/03/21 02:21:38;;;;;;;4.07;3.65;;;3.20;91.10;;;;;;5111774;28;20204;-85
2021/03/21 02:24:41;;;;;;;9.55;4.22;;;3.00;91.30;;;;;;5112885;28;20200;-86
2021/03/21 02:27:18;;;;;;;4.53;3.60;;;3.10;91.70;;;;;;5111443;28;20249;-84
2021/03/21 02:29:49;;;;;;;4.75;3.58;;;3.00;92.10;;;;;;5112559;28;20295;-84
2021/03/21 02:32:22;;;;;;;5.60;3.60;;;3.00;91.80;;;;;;5112921;28;20295;-83
2021/03/21 02:34:59;;;;;;;5.20;4.63;;;3.00;91.80;;;;;;5112555;28;20207;-83
2021/03/21 02:37:33;;;;;;;5.30;4.45;;;3.00;92.10;;;;;;5111663;28;20567;-84
2021/03/21 02:40:07;;;;;;;6.22;4.35;;;3.30;91.90;;;;;;5111244;28;20212;-84
2021/03/21 02:42:45;;;;;;;3.50;3.28;;;3.00;92.10;;;;;;5112782;28;20291;-83
2021/03/21 02:45:17;;;;;;;3.92;2.90;;;3.00;92.90;;;;;;5111925;28;20238;-83
2021/03/21 02:47:46;;;;;;;3.88;3.08;;;3.00;92.30;;;;;;5112830;28;20205;-84
2021/03/21 02:50:18;;;;;;;5.30;3.88;;;3.50;92.60;;;;;;5106905;28;20749;-82
2021/03/21 02:52:48;;;;;;;4.15;3.78;;;3.10;92.10;;;;;;5090849;28;20270;-84
2021/03/21 02:55:21;;;;;;;4.88;3.10;;;3.00;92.70;;;;;;5093469;28;20311;-83
2021/03/21 02:57:56;;;;;;;4.93;4.05;;;3.00;92.50;;;;;;5096048;28;20237;-83
2021/03/21 03:00:26;;;;;;;3.80;3.40;;;3.00;92.80;;;;;;5095789;28;20295;-83
2021/03/21 03:02:57;;;;;;;4.80;3.60;;;3.00;92.80;;;;;;5095785;28;20686;-84
2021/03/21 03:05:28;;;;;;;4.90;3.55;;;3.00;92.60;;;;;;5104135;28;20349;-85
2021/03/21 03:07:59;;;;;;;11.02;5.03;;;3.00;92.50;;;;;;5114995;28;20644;-84
2021/03/21 03:10:30;;;;;;;5.88;3.35;;;3.10;92.40;;;;;;5116217;28;20291;-83
2021/03/21 03:13:04;;;;;;;6.22;4.28;;;3.00;92.90;;;;;;5116151;28;20232;-83
2021/03/21 03:15:32;;;;;;;4.15;3.63;;;3.00;93.10;;;;;;5115917;28;20231;-84
2021/03/21 03:18:07;;;;;;;3.85;3.45;;;3.00;92.70;;;;;;5115089;28;20236;-83
2021/03/21 03:20:38;;;;;;;4.93;4.03;;;3.00;93.00;;;;;;5115885;28;20200;-83
2021/03/21 03:23:15;;;;;;;5.15;3.78;;;2.90;93.30;;;;;;5113538;28;20260;-83
2021/03/21 03:25:46;;;;;;;4.30;3.97;;;2.90;93.30;;;;;;5115937;27;20302;-83
2021/03/21 03:28:18;;;;;;;4.47;3.92;;;2.90;93.40;;;;;;5115897;28;20291;-83
2021/03/21 03:30:50;;;;;;;5.20;3.63;;;2.90;93.60;;;;;;5115598;28;20211;-86
2021/03/21 03:33:18;;;;;;;4.25;3.53;;;2.90;93.80;;;;;;5115876;28;20204;-83
2021/03/21 03:35:45;;;;;;;5.85;3.60;;;2.90;93.50;;;;;;5114429;28;20277;-84
2021/03/21 03:38:13;;;;;;;5.03;3.90;;;2.90;93.60;;;;;;5115696;28;20294;-83
2021/03/21 03:40:41;;;;;;;5.55;3.90;;;2.90;92.80;;;;;;5115591;28;20283;-84
2021/03/21 03:43:18;;;;;;;4.65;3.67;;;3.00;93.20;;;;;;5115412;28;20757;-84
2021/03/21 03:45:53;;;;;;;3.53;3.20;;;2.90;92.90;;;;;;5115475;28;20206;-85
2021/03/21 03:48:35;;;;;;;4.45;3.38;;;2.90;93.50;;;;;;5114778;28;20217;-85
2021/03/21 03:51:09;;;;;;;4.95;3.40;;;2.90;93.00;;;;;;5115386;28;20331;-84
2021/03/21 03:53:54;;;;;;;6.25;3.85;;;3.00;92.90;;;;;;5116986;28;20326;-87
2021/03/21 03:56:25;;;;;;;6.97;3.42;;;2.90;92.80;;;;;;5115760;28;20318;-84
2021/03/21 03:59:05;;;;;;;3.92;3.20;;;3.10;93.30;;;;;;5116014;28;20249;-85
2021/03/21 04:01:37;;;;;;;3.55;3.25;;;4.00;92.80;;;;;;5115123;27;20317;-85
2021/03/21 04:04:15;;;;;;;5.03;3.58;;;3.10;92.20;;;;;;5111955;28;20211;-84
2021/03/21 04:06:52;;;;;;;5.72;3.35;;;3.00;92.00;;;;;;5095908;28;20226;-84
2021/03/21 04:09:27;;;;;;;4.43;3.13;;;3.00;92.50;;;;;;5114583;28;20185;-84
2021/03/21 04:12:00;;;;;;;4.45;3.70;;;3.00;92.20;;;;;;5118113;28;20203;-84
2021/03/21 04:14:34;;;;;;;4.28;3.22;;;3.00;92.30;;;;;;5111712;28;20215;-84
2021/03/21 04:17:10;;;;;;;4.97;2.75;;;2.90;92.60;;;;;;5095837;28;20734;-84
2021/03/21 04:19:42;;;;;;;3.08;2.78;;;3.00;92.60;;;;;;5095563;28;20235;-84
2021/03/21 04:22:14;;;;;;;3.42;3.17;;;3.00;91.90;;;;;;5093409;28;20200;-85
2021/03/21 04:24:46;;;;;;;3.33;2.70;;;3.60;92.00;;;;;;5094437;28;20273;-84
2021/03/21 04:27:18;;;;;;;4.78;4.20;;;3.00;91.60;;;;;;5094258;28;20307;-85
2021/03/21 04:29:51;;;;;;;2.97;2.45;;;3.40;92.10;;;;;;5093945;28;20288;-84
2021/03/21 04:32:22;;;;;;;3.05;2.80;;;3.00;91.90;;;;;;5094031;28;20212;-85
2021/03/21 04:34:51;;;;;;;3.35;3.03;;;3.10;91.70;;;;;;5094262;28;20299;-84
2021/03/21 04:37:21;;;;;;;5.65;3.47;;;3.30;91.50;;;;;;5092560;28;20235;-84
2021/03/21 04:39:50;;;;;;;4.55;3.22;;;3.10;91.30;;;;;;5094924;28;20646;-85
2021/03/21 04:42:22;;;;;;;3.70;3.33;;;3.10;91.10;;;;;;5093502;28;20335;-84
2021/03/21 04:44:52;;;;;;;4.75;2.75;;;3.00;91.70;;;;;;5093937;28;20204;-85
2021/03/21 04:47:24;;;;;;;2.65;2.28;;;3.00;92.00;;;;;;5093773;28;20303;-84
2021/03/21 04:49:53;;;;;;;5.22;3.30;;;3.50;92.00;;;;;;5093979;28;20283;-85
2021/03/21 04:52:35;;;;;;;4.95;2.92;;;3.00;91.50;;;;;;5098219;28;20303;-83
2021/03/21 04:55:03;;;;;;;4.20;2.95;;;3.00;91.50;;;;;;5113778;28;20718;-84
2021/03/21 04:57:35;;;;;;;3.13;2.83;;;3.00;92.30;;;;;;5114110;28;20226;-87
2021/03/21 05:00:05;;;;;;;6.05;4.05;;;3.00;91.80;;;;;;5112900;28;20324;-84
2021/03/21 05:02:34;;;;;;;5.32;4.03;;;3.00;92.20;;;;;;5113917;28;20239;-85
2021/03/21 05:05:06;;;;;;;7.10;4.57;;;3.00;92.80;;;;;;5114033;28;20247;-85
2021/03/21 05:07:40;;;;;;;7.20;4.43;;;3.00;92.20;;;;;;5112481;28;20211;-85
2021/03/21 05:10:15;;;;;;;5.07;4.20;;;3.20;92.40;;;;;;5107613;28;20283;-86
2021/03/21 05:12:46;;;;;;;4.93;3.60;;;3.10;92.10;;;;;;5093183;28;20283;-84
2021/03/21 05:15:21;;;;;;;4.03;3.60;;;3.00;92.50;;;;;;5093409;28;20228;-84
2021/03/21 05:17:56;;;;;;;7.88;3.35;;;3.10;92.30;;;;;;5092060;28;20240;-84
2021/03/21 05:20:31;;;;;;;4.80;3.72;;;3.00;92.30;;;;;;5093273;28;20232;-85
2021/03/21 05:23:11;;;;;;;5.38;3.88;;;3.00;92.00;;;;;;5091649;28;20200;-84
2021/03/21 05:25:44;;;;;;;3.75;3.35;;;3.10;92.60;;;;;;5092924;28;20287;-83
2021/03/21 05:28:16;;;;;;;2.83;2.63;;;3.00;92.40;;;;;;5093085;28;20211;-83
2021/03/21 05:30:43;;;;;;;6.15;3.88;;;3.00;92.70;;;;;;5093104;28;20291;-83
2021/03/21 05:33:10;;;;;;;4.65;2.80;;;3.00;93.10;;;;;;5093060;28;20287;-84
2021/03/21 05:35:38;;;;;;;5.15;3.40;;;3.00;92.90;;;;;;5092866;28;20315;-84
2021/03/21 05:38:15;;;;;;;5.68;3.50;;;3.00;93.00;;;;;;5091647;28;20200;-83
2021/03/21 05:41:14;;;;;;;6.68;3.28;;;3.10;92.70;;;;;;5092873;28;20204;-84
2021/03/21 05:44:26;;;;;;;4.95;3.38;;;3.10;93.00;;;;;;5068736;28;20699;-84
2021/03/21 05:47:31;;;;;;;4.43;4.00;;;3.10;92.80;;;;;;5092719;28;20295;-85
2021/03/21 05:50:37;;;;;;;6.70;3.38;;;3.10;92.80;;;;;;5092787;28;20207;-84
2021/03/21 05:53:46;;;;;;;3.53;3.08;;;3.10;92.20;;;;;;5073470;28;20361;-84
2021/03/21 05:56:34;;;;;;;4.88;3.30;;;3.10;93.10;;;;;;5098939;28;20263;-81
2021/03/21 05:59:15;;;;;;;3.90;3.50;;;3.20;92.60;;;;;;5113246;28;20619;-82
2021/03/21 06:01:57;;;;;;;5.45;3.78;;;3.20;92.40;;;;;;5112982;28;20249;-83
2021/03/21 06:04:55;;;;;;;3.20;2.90;;;3.20;92.70;;;;;;5113212;28;20200;-83
2021/03/21 06:08:00;;;;;;;4.35;3.13;;;3.20;92.80;;;;;;5112006;28;20204;-84
2021/03/21 06:10:57;;;;;;;3.22;2.92;;;3.20;92.10;;;;;;5113203;28;20235;-83
2021/03/21 06:13:57;;;;;;;5.18;2.85;;;3.30;92.90;;;;;;5111727;28;20204;-83
2021/03/21 06:16:43;;;;;;;4.43;3.47;;;3.30;92.80;;;;;;5113179;28;20238;-82
2021/03/21 06:19:34;;;;;;;2.72;2.40;;;3.30;92.70;;;;;;5112530;28;20291;-83
2021/03/21 06:22:18;;;;;;;4.28;3.03;;;3.30;92.10;;;;;;5098739;28;20291;-82
2021/03/21 06:25:00;;;;;;;2.95;2.55;;;3.40;92.90;;;;;;5092583;28;20229;-82
2021/03/21 06:28:05;;;;;;;3.45;3.13;;;3.30;93.10;;;;;;5092583;28;20745;-83
2021/03/21 06:31:07;;;;;;;4.38;3.80;;;3.40;93.10;;;;;;5051261;28;20295;-83
2021/03/21 06:33:45;;;;;;;5.90;3.28;;;3.40;92.90;;;;;;5078995;28;20273;-83
2021/03/21 06:36:20;;;;;;;4.22;3.13;;;3.40;93.40;;;;;;5094593;28;20925;-83
2021/03/21 06:39:32;;;;;;;5.18;3.88;;;3.50;93.50;;;;;;5096401;28;20671;-82
2021/03/21 06:42:52;;;;;;;5.43;3.22;;;3.50;93.50;;;;;;5071354;28;20212;-83
2021/03/21 06:45:55;;;;;;;4.10;3.72;;;3.50;93.60;;;;;;5052571;28;20206;-83
2021/03/21 06:49:01;;;;;;;4.13;3.25;;;3.50;93.40;;;;;;5095991;28;20283;-83
2021/03/21 06:51:42;;;;;;;4.50;3.88;;;3.50;93.40;;;;;;5094092;28;20236;-82
2021/03/21 06:54:33;;;;;;;5.35;3.47;;;3.60;94.10;;;;;;5095422;28;20662;-83
2021/03/21 06:57:43;;;;;;;4.03;3.60;;;3.60;93.70;;;;;;5115830;28;20610;-82
2021/03/21 07:00:56;;;;;;;5.78;4.32;;;3.70;93.80;;;;;;5115688;28;20295;-82
2021/03/21 07:04:00;;;;;;;6.03;3.50;;;3.70;93.70;;;;;;5116304;28;20622;-82
2021/03/21 07:06:59;;;;;;;4.05;3.33;;;3.80;94.00;;;;;;5114883;28;20200;-83
2021/03/21 07:10:02;;;;;;;6.80;3.85;;;3.70;94.20;;;;;;5117536;28;20240;-83
2021/03/21 07:13:05;;;;;;;5.65;4.18;;;3.80;93.80;;;;;;5095665;28;20279;-82
2021/03/21 07:16:05;;;;;;;10.48;4.95;;;3.70;93.80;;;;;;5095968;28;20782;-82
2021/03/21 07:19:09;;;;;;;5.95;3.45;;;3.80;94.40;;;;;;5095689;28;20667;-82
2021/03/21 07:22:23;;;;;;;4.50;4.00;;;3.90;94.10;;;;;;5094267;28;20204;-83
2021/03/21 07:25:16;;;;;;;6.65;3.08;;;3.90;93.60;;;;;;5064577;28;20250;-83
2021/03/21 07:27:51;;;;;;;4.57;3.97;;;3.90;93.40;;;;;;5095380;28;20201;-82
2021/03/21 07:30:25;;;;;;;9.25;3.80;;;3.90;93.50;;;;;;5095433;28;20287;-82
2021/03/21 07:33:21;;;;;;;4.70;3.30;;;3.90;93.60;;;;;;5095418;28;20723;-83
2021/03/21 07:36:25;;;;;;;4.97;3.40;;;3.90;93.40;;;;;;5094888;28;20221;-82
2021/03/21 07:39:11;;;;;;;5.75;3.58;;;3.80;93.40;;;;;;5095330;28;20205;-83
2021/03/21 07:41:57;;;;;;;5.82;3.78;;;3.80;93.30;;;;;;5094023;28;20208;-84
2021/03/21 07:45:00;;;;;;;4.65;3.85;;;3.90;94.10;;;;;;5095028;28;20679;-83
2021/03/21 07:47:41;;;;;;;5.68;3.75;;;3.90;93.70;;;;;;5067503;28;20296;-82
2021/03/21 07:50:22;;;;;;;7.72;4.75;;;4.00;93.60;;;;;;5095313;28;20236;-84
2021/03/21 07:53:04;;;;;;;8.00;4.75;;;4.00;93.50;;;;;;5110235;28;20281;-84
2021/03/21 07:55:36;;;;;;;8.30;5.05;;;4.00;94.00;;;;;;5115939;28;20212;-84
2021/03/21 07:58:18;;;;;;;4.45;4.05;;;4.10;93.80;;;;;;5115810;28;20291;-83
2021/03/21 08:00:46;;;;;;;5.10;4.05;;;4.20;93.50;;;;;;5114833;28;20298;-83
2021/03/21 08:03:42;;;;;;;6.38;4.80;;;4.20;94.00;;;;;;5117049;28;20304;-82
2021/03/21 08:06:14;;;;;;;6.53;4.05;;;4.30;93.60;;;;;;5106046;28;20291;-83
2021/03/21 08:08:46;;;;;;;6.53;4.40;;;4.40;93.40;;;;;;5116183;28;20196;-83
2021/03/21 08:11:18;;;;;;;7.57;5.43;;;4.40;93.80;;;;;;5130617;28;20204;-82
2021/03/21 08:13:47;;;;;;;4.95;4.22;;;4.40;93.20;;;;;;5107417;28;20231;-85
2021/03/21 08:16:16;;;;;;;5.75;5.13;;;4.50;93.20;;;;;;5096667;28;20319;-84
2021/03/21 08:18:46;;;;;;;4.57;3.50;;;4.60;93.40;;;;;;5110703;28;20228;-82
2021/03/21 08:21:17;;;;;;;8.85;5.32;;;4.70;93.60;;;;;;5112760;28;20189;-83
2021/03/21 08:23:49;;;;;;;3.92;3.50;;;5.20;93.50;;;;;;5119513;28;20204;-85
2021/03/21 08:26:25;;;;;;;4.50;4.10;;;4.80;93.90;;;;;;5117617;28;20263;-84
2021/03/21 08:29:06;;;;;;;5.60;4.28;;;4.80;93.30;;;;;;5116581;27;20208;-85
2021/03/21 08:31:35;;;;;;;4.07;3.45;;;4.90;93.70;;;;;;5114602;28;20828;-81
2021/03/21 08:34:37;;;;;;;4.35;3.60;;;5.10;93.50;;;;;;5114503;28;20228;-84
2021/03/21 08:37:26;;;;;;;9.38;4.38;;;5.20;92.80;;;;;;5113625;28;20280;-83
2021/03/21 08:39:56;;;;;;;3.80;3.15;;;5.30;92.50;;;;;;5114556;28;20200;-85
2021/03/21 08:42:34;;;;;;;3.80;3.38;;;5.50;91.60;;;;;;5114303;28;20288;-87
2021/03/21 08:45:07;;;;;;;4.55;3.95;;;5.60;91.20;;;;;;5114353;28;20247;-87
2021/03/21 08:47:35;;;;;;;7.03;3.40;;;5.50;91.50;;;;;;5114764;28;20578;-85
2021/03/21 08:50:03;;;;;;;3.05;2.75;;;5.50;91.60;;;;;;5115033;28;20196;-85
2021/03/21 08:52:34;;;;;;;7.10;3.90;;;5.60;90.90;;;;;;5102280;28;20235;-86
2021/03/21 08:55:02;;;;;;;3.78;2.80;;;5.60;90.60;;;;;;5094955;28;20211;-85
2021/03/21 08:57:32;;;;;;;4.85;3.10;;;5.70;91.20;;;;;;5093824;28;20264;-85
2021/03/21 09:00:29;;;;;;;2.38;2.10;;;5.70;90.40;;;;;;5093063;28;20280;-85
2021/03/21 09:02:56;;;;;;;8.35;3.17;;;5.80;90.10;;;;;;5094561;28;20645;-83
2021/03/21 09:05:24;;;;;;;2.60;2.40;;;6.00;90.00;;;;;;5093732;28;20240;-86
2021/03/21 09:08:06;;;;;;;3.23;2.70;;;5.80;90.20;;;;;;5092346;28;20537;-86
2021/03/21 09:10:35;;;;;;;3.97;2.95;;;5.70;89.50;;;;;;5093854;28;20450;-85
2021/03/21 09:13:18;;;;;;;5.15;4.10;;;5.60;88.60;;;;;;5093701;28;20548;-84
2021/03/21 09:15:45;;;;;;;5.38;3.33;;;5.50;88.10;;;;;;5091856;28;20774;-84
2021/03/21 09:18:30;;;;;;;4.18;3.22;;;5.50;89.60;;;;;;5094089;28;20235;-83
2021/03/21 09:21:06;;;;;;;5.75;4.43;;;5.50;90.80;;;;;;5092156;28;20208;-86
2021/03/21 09:23:43;;;;;;;4.00;3.42;;;5.60;89.90;;;;;;5093894;28;20200;-82
2021/03/21 09:26:32;;;;;;;6.20;3.58;;;5.60;87.80;;;;;;5112985;28;20744;-83
2021/03/21 09:29:03;;;;;;;3.80;3.22;;;5.80;89.50;;;;;;5114207;28;20286;-83
2021/03/21 09:31:30;;;;;;;3.75;3.03;;;5.60;88.80;;;;;;5114095;28;20224;-83
2021/03/21 09:34:02;;;;;;;3.65;2.75;;;5.70;88.70;;;;;;5113925;28;20247;-83
2021/03/21 09:36:35;;;;;;;3.00;2.70;;;5.70;90.80;;;;;;5112448;28;20227;-83
2021/03/21 09:39:09;;;;;;;3.42;3.13;;;5.80;88.80;;;;;;5113613;28;20268;-83
2021/03/21 09:41:36;;;;;;;3.30;3.00;;;5.70;87.50;;;;;;5113973;28;20211;-82
2021/03/21 09:44:06;;;;;;;5.35;3.53;;;6.00;86.90;;;;;;5113477;28;20242;-83
2021/03/21 09:46:44;;;;;;;4.40;2.92;;;6.10;86.90;;;;;;5114229;28;20295;-83
2021/03/21 09:49:18;;;;;;;5.78;3.22;;;6.20;86.10;;;;;;5112461;28;20200;-83
2021/03/21 09:51:51;;;;;;;4.72;3.00;;;6.00;87.00;;;;;;5112112;28;20294;-87
2021/03/21 09:54:34;;;;;;;2.80;2.60;;;6.10;86.20;;;;;;5113062;28;20250;-84
2021/03/21 09:57:17;;;;;;;4.35;3.63;;;6.60;87.10;;;;;;5112834;28;20270;-81
2021/03/21 09:59:52;;;;;;;2.97;2.67;;;6.30;86.10;;;;;;5116000;28;20273;-84
2021/03/21 10:02:26;;;;;;;6.97;3.17;;;6.20;86.60;;;;;;5108200;28;20204;-84
2021/03/21 10:04:58;;;;;;;3.60;3.17;;;6.50;86.80;;;;;;5095247;28;20298;-85
2021/03/21 10:07:34;;;;;;;5.20;2.58;;;6.80;84.90;;;;;;5107085;28;20291;-91
2021/03/21 10:10:08;;;;;;;4.45;3.67;;;6.40;85.50;;;;;;5118842;28;20291;-86
2021/03/21 10:12:40;;;;;;;6.88;4.15;;;6.50;86.10;;;;;;5117300;28;20642;-84
2021/03/21 10:15:12;;;;;;;5.25;3.20;;;6.60;87.10;;;;;;5117170;28;20208;-82
2021/03/21 10:18:00;;;;;;;5.20;3.50;;;6.60;89.90;;;;;;5118580;28;20314;-83
2021/03/21 10:21:18;;;;;;;4.60;3.47;;;6.60;89.80;;;;;;5118190;28;20208;-82
2021/03/21 10:24:36;;;;;;;5.15;4.65;;;6.80;90.30;;;;;;5117636;28;20212;-83
2021/03/21 10:27:40;;;;;;;9.30;4.13;;;6.50;91.70;;;;;;5128840;27;20260;-83
2021/03/21 10:30:23;;;;;;;7.00;4.35;;;6.40;91.70;;;;;;5136857;27;20238;-82
2021/03/21 10:33:13;;;;;;;5.32;4.30;;;6.30;92.70;;;;;;5136870;27;20682;-81
2021/03/21 10:35:54;;;;;;;6.93;3.75;;;6.60;92.80;;;;;;5136816;27;20203;-88
2021/03/21 10:38:53;;;;;;;9.48;4.53;;;6.60;91.90;;;;;;5136193;27;20267;-83
2021/03/21 10:41:55;;;;;;;6.50;4.47;;;6.70;92.50;;;;;;5136625;27;20574;-77
2021/03/21 10:44:55;;;;;;;6.80;4.10;;;6.70;92.60;;;;;;5121726;27;20203;-87
2021/03/21 10:47:43;;;;;;;5.93;3.75;;;6.50;93.30;;;;;;5115993;28;20672;-81
2021/03/21 10:50:48;;;;;;;10.60;4.93;;;6.70;93.40;;;;;;5115303;28;20210;-82
2021/03/21 10:53:20;;;;;;;6.60;4.28;;;6.60;93.20;;;;;;5114354;28;20747;-84
2021/03/21 10:56:20;;;;;;;5.30;4.63;;;6.70;93.60;;;;;;5116045;28;20268;-82
2021/03/21 10:59:08;;;;;;;6.18;4.70;;;6.80;93.20;;;;;;5116865;28;20235;-82
2021/03/21 11:01:38;;;;;;;14.68;6.68;;;6.70;93.40;;;;;;5116217;28;20736;-84
2021/03/21 11:04:23;;;;;;;9.93;6.95;;;6.80;93.90;;;;;;5115739;28;20317;-84
2021/03/21 11:06:59;;;;;;;5.80;4.63;;;6.80;93.50;;;;;;5094243;28;20204;-84
2021/03/21 11:09:32;;;;;;;6.53;4.05;;;6.40;94.70;;;;;;5096174;28;20303;-84
2021/03/21 11:12:02;;;;;;;5.72;4.28;;;6.20;95.00;;;;;;5095123;28;20668;-81
2021/03/21 11:14:34;;;;;;;5.32;3.78;;;6.10;95.20;;;;;;5095390;28;20280;-79
2021/03/21 11:17:06;;;;;;;4.30;3.75;;;5.90;96.10;;;;;;5094905;28;20309;-80
2021/03/21 11:19:35;;;;;;;5.18;4.63;;;6.00;95.90;;;;;;5095656;28;20201;-84
2021/03/21 11:22:17;;;;;;;10.57;5.18;;;6.00;96.20;;;;;;5094344;28;20578;-83
2021/03/21 11:24:43;;;;;;;6.93;3.92;;;6.40;96.20;;;;;;5094345;28;20200;-81
2021/03/21 11:27:14;;;;;;;7.43;4.63;;;6.40;96.20;;;;;;5094843;28;20197;-82
2021/03/21 11:29:42;;;;;;;8.25;4.47;;;6.60;96.50;;;;;;5095341;28;20205;-82
2021/03/21 11:32:15;;;;;;;7.68;5.18;;;6.40;96.10;;;;;;5095695;28;20648;-83
2021/03/21 11:34:44;;;;;;;4.72;4.25;;;6.60;96.50;;;;;;5095369;28;20266;-80
2021/03/21 11:37:15;;;;;;;5.73;4.43;;;6.30;96.10;;;;;;5093702;28;20232;-84
2021/03/21 11:39:47;;;;;;;7.45;4.90;;;6.60;96.10;;;;;;5095027;28;20942;-81
2021/03/21 11:42:20;;;;;;;7.82;6.07;;;6.50;95.60;;;;;;5085420;28;20233;-80
2021/03/21 11:44:53;;;;;;;6.43;4.70;;;6.70;95.30;;;;;;5075038;28;20646;-83
2021/03/21 11:47:30;;;;;;;6.60;3.60;;;6.60;95.00;;;;;;5075628;28;20201;-85
2021/03/21 11:49:59;;;;;;;7.97;5.63;;;6.80;95.60;;;;;;5084244;28;20205;-83
2021/03/21 11:52:28;;;;;;;7.50;4.50;;;6.90;94.80;;;;;;5093253;28;20378;-82
2021/03/21 11:54:55;;;;;;;6.28;4.50;;;6.80;95.00;;;;;;5095076;28;20254;-83
2021/03/21 11:57:35;;;;;;;8.02;5.15;;;6.90;95.00;;;;;;5094532;28;20327;-79
2021/03/21 12:00:06;;;;;;;5.97;4.90;;;6.70;94.90;;;;;;5094635;28;20257;-79
2021/03/21 12:02:40;;;;;;;5.18;4.32;;;6.60;95.00;;;;;;5093243;28;20495;-79
2021/03/21 12:05:15;;;;;;;5.88;4.72;;;6.40;94.30;;;;;;5094554;28;20283;-82
2021/03/21 12:07:41;;;;;;;5.30;4.32;;;6.40;94.70;;;;;;5094012;28;20287;-83
2021/03/21 12:10:14;;;;;;;6.43;4.43;;;6.50;94.30;;;;;;5094738;28;20608;-83
2021/03/21 12:12:44;;;;;;;6.30;4.65;;;6.70;94.30;;;;;;5096635;28;20211;-79
2021/03/21 12:15:16;;;;;;;4.95;3.83;;;6.80;93.90;;;;;;5102943;28;20291;-81
2021/03/21 12:17:44;;;;;;;6.70;4.78;;;6.70;94.00;;;;;;5081668;28;20233;-79
2021/03/21 12:20:33;;;;;;;6.38;4.18;;;6.60;94.50;;;;;;5074266;28;20201;-81
2021/03/21 12:23:01;;;;;;;4.13;3.25;;;6.50;95.30;;;;;;5078615;28;20280;-78
2021/03/21 12:25:29;;;;;;;5.07;4.57;;;6.50;96.00;;;;;;5076390;28;20288;-80
2021/03/21 12:28:14;;;;;;;8.20;5.32;;;6.70;96.40;;;;;;5080732;28;20292;-80
2021/03/21 12:30:44;;;;;;;4.75;3.60;;;6.90;96.10;;;;;;5082484;28;20633;-79
2021/03/21 12:33:31;;;;;;;11.95;5.63;;;6.90;95.90;;;;;;5073102;28;20531;-80
2021/03/21 12:36:12;;;;;;;4.70;4.20;;;6.40;97.40;;;;;;5085613;28;20232;-78
2021/03/21 12:38:42;;;;;;;16.77;8.38;;;6.30;98.30;;;;;;5093746;28;20237;-80
2021/03/21 12:41:38;;;;;;;31.02;13.77;;;6.50;98.80;;;;;;5092587;28;20633;-79
2021/03/21 12:44:23;;;;;;;5.25;4.40;;;6.70;98.90;;;;;;5090930;28;20737;-81
2021/03/21 12:46:53;;;;;;;8.90;3.45;;;6.70;98.30;;;;;;5094200;28;20224;-79
2021/03/21 12:49:44;;;;;;;6.28;4.15;;;6.80;98.30;;;;;;5093204;28;20232;-79
2021/03/21 12:52:13;;;;;;;6.13;4.78;;;6.50;98.70;;;;;;5092098;28;20205;-80
2021/03/21 12:54:41;;;;;;;6.10;3.75;;;6.80;99.10;;;;;;5093743;28;20251;-79
2021/03/21 12:57:11;;;;;;;6.95;4.00;;;7.10;98.50;;;;;;5092518;28;20803;-80
2021/03/21 12:59:39;;;;;;;3.83;3.30;;;7.00;98.60;;;;;;5093532;28;20273;-79
2021/03/21 13:02:12;;;;;;;4.05;3.65;;;6.60;98.90;;;;;;5093097;28;20288;-79
2021/03/21 13:04:41;;;;;;;3.03;2.70;;;6.30;99.90;;;;;;5093470;28;20207;-80
2021/03/21 13:07:07;;;;;;;5.75;4.05;;;6.30;99.90;;;;;;5091742;28;20202;-79
2021/03/21 13:09:33;;;;;;;4.97;4.45;;;6.40;99.90;;;;;;5093279;28;20751;-80
2021/03/21 13:12:00;;;;;;;4.15;3.60;;;6.50;99.90;;;;;;5058328;28;20663;-82
2021/03/21 13:14:26;;;;;;;7.10;4.95;;;6.70;99.90;;;;;;5093679;28;20211;-83
2021/03/21 13:16:53;;;;;;;7.10;5.25;;;6.70;99.90;;;;;;5094640;28;20319;-79
2021/03/21 13:19:19;;;;;;;6.82;4.82;;;6.70;99.90;;;;;;5093237;28;20303;-78
2021/03/21 13:21:48;;;;;;;11.77;6.10;;;6.50;99.90;;;;;;5092222;28;20252;-80
2021/03/21 13:24:15;;;;;;;8.40;5.20;;;6.50;99.90;;;;;;5087448;28;20289;-82
2021/03/21 13:26:41;;;;;;;8.68;6.65;;;6.20;99.90;;;;;;5072794;28;20212;-79
2021/03/21 13:29:07;;;;;;;9.00;4.50;;;6.40;99.90;;;;;;5074138;28;20246;-84
2021/03/21 13:31:34;;;;;;;6.88;3.90;;;6.60;99.90;;;;;;5082612;28;20679;-82
2021/03/21 13:34:00;;;;;;;7.88;5.30;;;6.50;99.90;;;;;;5093307;28;20197;-80
2021/03/21 13:36:26;;;;;;;5.57;4.90;;;6.50;99.90;;;;;;5092077;28;20260;-78
2021/03/21 13:38:54;;;;;;;6.25;4.35;;;6.40;99.90;;;;;;5092497;28;20372;-86
2021/03/21 13:41:20;;;;;;;6.75;5.00;;;6.40;99.90;;;;;;5057800;28;20232;-88
2021/03/21 13:43:47;;;;;;;8.07;5.32;;;6.50;99.90;;;;;;5093134;28;20288;-82
2021/03/21 13:46:13;;;;;;;5.10;4.20;;;6.50;99.90;;;;;;5092623;28;20209;-81